createdAt,value
2018-07-31T00:01:29.484Z,9.13
2018-07-31T00:03:58.131Z,9.93
2018-07-31T00:06:26.780Z,9.17
2018-07-31T00:08:56.415Z,10.50
2018-07-31T00:11:25.260Z,9.50
2018-07-31T00:13:54.094Z,9.00
2018-07-31T00:16:22.694Z,9.87
2018-07-31T00:18:51.383Z,10.13
2018-07-31T00:21:20.082Z,9.60
2018-07-31T00:23:48.755Z,9.50
2018-07-31T00:26:17.424Z,9.63
2018-07-31T00:28:46.149Z,9.80
2018-07-31T00:31:14.905Z,9.97
2018-07-31T00:33:43.891Z,10.07
2018-07-31T00:36:12.520Z,9.87
2018-07-31T00:38:41.159Z,9.90
2018-07-31T00:41:10.402Z,9.80
2018-07-31T00:43:39.111Z,10.10
2018-07-31T00:46:07.806Z,8.87
2018-07-31T00:48:36.480Z,8.80
2018-07-31T00:51:05.131Z,7.57
2018-07-31T00:53:33.762Z,8.53
2018-07-31T00:56:02.483Z,8.60
2018-07-31T00:58:31.152Z,8.40
2018-07-31T01:00:59.850Z,8.00
2018-07-31T01:03:28.539Z,8.47
2018-07-31T01:05:57.178Z,9.80
2018-07-31T01:08:25.840Z,8.60
2018-07-31T01:10:54.488Z,8.33
2018-07-31T01:13:23.174Z,8.43
2018-07-31T01:15:51.893Z,7.80
2018-07-31T01:18:20.520Z,8.30
2018-07-31T01:20:51.518Z,7.87
2018-07-31T01:23:20.155Z,7.57
2018-07-31T01:25:49.242Z,7.37
2018-07-31T01:28:17.916Z,7.77
2018-07-31T01:30:46.581Z,8.00
2018-07-31T01:33:15.201Z,8.03
2018-07-31T01:35:44.079Z,7.40
2018-07-31T01:38:12.842Z,7.57
2018-07-31T01:40:41.493Z,8.30
2018-07-31T01:43:10.139Z,7.33
2018-07-31T01:45:38.799Z,7.43
2018-07-31T01:48:07.437Z,7.33
2018-07-31T01:50:36.107Z,7.40
2018-07-31T01:53:04.759Z,7.37
2018-07-31T01:55:33.504Z,7.60
2018-07-31T01:58:02.222Z,7.83
2018-07-31T02:00:30.880Z,7.27
2018-07-31T02:02:59.515Z,7.40
2018-07-31T02:05:28.138Z,8.43
2018-07-31T02:07:56.842Z,8.93
2018-07-31T02:10:25.491Z,8.37
2018-07-31T02:12:54.198Z,8.20
2018-07-31T02:15:22.891Z,8.57
2018-07-31T02:17:51.497Z,7.43
2018-07-31T02:20:20.163Z,7.73
2018-07-31T02:22:48.782Z,8.93
2018-07-31T02:25:17.434Z,8.63
2018-07-31T02:27:46.166Z,9.97
2018-07-31T02:30:20.879Z,11.47
2018-07-31T02:32:50.345Z,12.13
2018-07-31T02:35:19.070Z,11.83
2018-07-31T02:37:47.746Z,11.73
2018-07-31T02:40:16.466Z,11.10
2018-07-31T02:42:45.182Z,10.03
2018-07-31T02:45:14.727Z,10.13
2018-07-31T02:47:44.295Z,10.00
2018-07-31T02:50:12.994Z,10.43
2018-07-31T02:52:41.871Z,10.33
2018-07-31T02:55:11.435Z,10.03
2018-07-31T02:57:40.616Z,10.53
2018-07-31T03:00:10.554Z,11.53
2018-07-31T03:02:39.314Z,11.73
2018-07-31T03:05:10.495Z,11.83
2018-07-31T03:07:39.200Z,11.97
2018-07-31T03:10:09.327Z,12.17
2018-07-31T03:12:37.946Z,12.00
2018-07-31T03:15:07.862Z,11.67
2018-07-31T03:17:36.534Z,12.17
2018-07-31T03:20:05.538Z,11.97
2018-07-31T03:22:34.204Z,12.13
2018-07-31T03:25:03.254Z,12.83
2018-07-31T03:27:32.050Z,14.43
2018-07-31T03:30:00.670Z,13.00
2018-07-31T03:32:29.339Z,13.07
2018-07-31T03:34:57.988Z,12.37
2018-07-31T03:37:26.654Z,13.63
2018-07-31T03:39:55.538Z,12.77
2018-07-31T03:42:24.206Z,11.93
2018-07-31T03:44:52.821Z,14.97
2018-07-31T03:47:21.565Z,23.30
2018-07-31T03:49:50.283Z,17.37
2018-07-31T03:52:18.922Z,16.37
2018-07-31T03:54:47.561Z,16.70
2018-07-31T03:57:16.205Z,17.63
2018-07-31T03:59:44.894Z,14.53
2018-07-31T04:02:13.623Z,15.07
2018-07-31T04:04:42.305Z,15.13
2018-07-31T04:07:10.939Z,14.40
2018-07-31T04:09:39.749Z,15.23
2018-07-31T04:12:08.475Z,14.17
2018-07-31T04:14:37.090Z,13.83
2018-07-31T04:17:05.784Z,11.80
2018-07-31T04:19:34.399Z,11.43
2018-07-31T04:22:03.097Z,11.47
2018-07-31T04:24:31.757Z,11.57
2018-07-31T04:27:00.466Z,13.20
2018-07-31T04:29:29.235Z,12.67
2018-07-31T04:31:57.988Z,11.67
2018-07-31T04:34:26.674Z,12.10
2018-07-31T04:36:55.390Z,11.17
2018-07-31T04:39:24.134Z,11.47
2018-07-31T04:41:52.787Z,10.30
2018-07-31T04:44:21.476Z,10.77
2018-07-31T04:46:50.143Z,10.10
2018-07-31T04:49:18.835Z,10.80
2018-07-31T04:51:47.526Z,11.70
2018-07-31T04:54:16.255Z,11.57
2018-07-31T04:56:45.243Z,10.97
2018-07-31T04:59:14.073Z,10.67
2018-07-31T05:01:42.814Z,10.90
2018-07-31T05:04:11.435Z,11.77
2018-07-31T05:06:40.116Z,11.47
2018-07-31T05:09:10.943Z,11.67
2018-07-31T05:11:39.773Z,11.07
2018-07-31T05:14:08.785Z,11.53
2018-07-31T05:16:37.594Z,11.10
2018-07-31T05:19:06.490Z,11.33
2018-07-31T05:21:35.279Z,11.37
2018-07-31T05:24:03.996Z,11.00
2018-07-31T05:26:32.650Z,11.40
2018-07-31T05:29:01.256Z,10.60
2018-07-31T05:31:29.893Z,11.00
2018-07-31T05:33:58.650Z,10.73
2018-07-31T05:36:27.295Z,11.23
2018-07-31T05:38:56.006Z,11.27
2018-07-31T05:41:24.706Z,12.50
2018-07-31T05:43:53.464Z,12.50
2018-07-31T05:46:22.137Z,16.30
2018-07-31T05:48:50.808Z,12.83
2018-07-31T05:51:19.557Z,14.53
2018-07-31T05:53:48.372Z,17.33
2018-07-31T05:56:17.202Z,19.27
2018-07-31T05:58:46.778Z,16.50
2018-07-31T06:01:15.428Z,15.53
2018-07-31T06:03:44.070Z,14.10
2018-07-31T06:06:12.820Z,14.40
2018-07-31T06:08:41.478Z,14.30
2018-07-31T06:11:10.149Z,13.67
2018-07-31T06:13:38.856Z,14.63
2018-07-31T06:16:07.605Z,12.87
2018-07-31T06:18:36.641Z,13.90
2018-07-31T06:21:05.356Z,14.67
2018-07-31T06:23:34.036Z,12.40
2018-07-31T06:26:02.758Z,12.93
2018-07-31T06:28:31.581Z,14.43
2018-07-31T06:31:00.276Z,12.00
2018-07-31T06:33:29.065Z,11.90
2018-07-31T06:35:57.817Z,11.53
2018-07-31T06:38:26.462Z,13.93
2018-07-31T06:40:55.109Z,12.20
2018-07-31T06:43:23.994Z,11.93
2018-07-31T06:45:52.671Z,14.90
2018-07-31T06:48:21.629Z,16.50
2018-07-31T06:50:50.313Z,13.23
2018-07-31T06:53:18.964Z,12.63
2018-07-31T06:55:47.651Z,12.50
2018-07-31T06:58:16.553Z,10.63
2018-07-31T07:00:45.178Z,10.83
2018-07-31T07:03:13.867Z,10.30
2018-07-31T07:05:42.553Z,10.50
2018-07-31T07:08:11.287Z,10.37
2018-07-31T07:10:40.247Z,11.67
2018-07-31T07:13:08.926Z,10.53
2018-07-31T07:15:37.603Z,10.73
2018-07-31T07:18:06.463Z,11.10
2018-07-31T07:20:35.123Z,10.03
2018-07-31T07:23:03.792Z,9.97
2018-07-31T07:25:32.507Z,9.03
2018-07-31T07:28:01.180Z,8.53
2018-07-31T07:30:29.810Z,7.57
2018-07-31T07:32:58.480Z,6.87
2018-07-31T07:35:27.316Z,6.37
2018-07-31T07:37:56.090Z,6.50
2018-07-31T07:40:24.847Z,6.80
2018-07-31T07:42:53.467Z,6.73
2018-07-31T07:45:22.139Z,7.83
2018-07-31T07:47:50.827Z,8.60
2018-07-31T07:50:19.536Z,8.10
2018-07-31T07:52:48.574Z,7.43
2018-07-31T07:55:17.229Z,8.00
2018-07-31T07:57:45.869Z,9.50
2018-07-31T08:00:14.537Z,8.87
2018-07-31T08:02:43.187Z,8.68
2018-07-31T08:05:11.882Z,8.27
2018-07-31T08:07:41.252Z,8.33
2018-07-31T08:10:09.955Z,9.20
2018-07-31T08:12:38.639Z,9.93
2018-07-31T08:15:07.336Z,9.53
2018-07-31T08:17:35.987Z,12.83
2018-07-31T08:20:05.683Z,10.63
2018-07-31T08:22:34.324Z,10.37
2018-07-31T08:25:03.115Z,9.63
2018-07-31T08:27:31.778Z,8.43
2018-07-31T08:30:00.475Z,9.10
2018-07-31T08:32:29.126Z,8.77
2018-07-31T08:34:57.895Z,7.83
2018-07-31T08:37:26.611Z,8.13
2018-07-31T08:39:55.373Z,8.27
2018-07-31T08:42:24.870Z,8.20
2018-07-31T08:44:53.527Z,7.77
2018-07-31T08:47:22.281Z,8.07
2018-07-31T08:49:51.019Z,7.87
2018-07-31T08:52:19.778Z,7.60
2018-07-31T08:54:49.540Z,7.97
2018-07-31T08:57:18.174Z,8.50
2018-07-31T08:59:46.858Z,8.33
2018-07-31T09:02:15.508Z,8.33
2018-07-31T09:04:44.173Z,7.83
2018-07-31T09:07:12.777Z,8.00
2018-07-31T09:09:41.541Z,7.70
2018-07-31T09:12:10.210Z,7.43
2018-07-31T09:14:38.859Z,7.80
2018-07-31T09:17:07.581Z,7.42
2018-07-31T09:19:36.241Z,7.70
2018-07-31T09:22:04.898Z,7.78
2018-07-31T09:24:33.643Z,7.60
2018-07-31T09:27:02.293Z,7.58
2018-07-31T09:29:30.974Z,7.37
2018-07-31T09:31:59.631Z,7.42
2018-07-31T09:34:28.423Z,7.72
2018-07-31T09:36:57.137Z,7.90
2018-07-31T09:39:25.819Z,7.90
2018-07-31T09:41:54.447Z,7.50
2018-07-31T09:44:23.167Z,8.20
2018-07-31T09:46:51.879Z,7.65
2018-07-31T09:49:20.512Z,8.00
2018-07-31T09:51:49.218Z,8.00
2018-07-31T09:54:17.893Z,7.70
2018-07-31T09:56:46.547Z,7.80
2018-07-31T09:59:15.276Z,8.93
2018-07-31T10:01:43.959Z,8.50
2018-07-31T10:04:12.622Z,7.95
2018-07-31T10:06:41.239Z,8.43
2018-07-31T10:09:10.754Z,7.72
2018-07-31T10:11:39.416Z,8.38
2018-07-31T10:14:08.082Z,7.75
2018-07-31T10:16:36.806Z,8.23
2018-07-31T10:19:05.450Z,8.00
2018-07-31T10:21:34.100Z,7.78
2018-07-31T10:24:02.800Z,8.00
2018-07-31T10:26:31.717Z,7.83
2018-07-31T10:29:00.362Z,8.55
2018-07-31T10:31:29.361Z,7.37
2018-07-31T10:33:57.974Z,7.75
2018-07-31T10:36:26.781Z,8.00
2018-07-31T10:38:55.461Z,7.58
2018-07-31T10:41:24.119Z,7.58
2018-07-31T10:43:52.837Z,7.10
2018-07-31T10:46:21.454Z,7.95
2018-07-31T10:48:50.195Z,8.58
2018-07-31T10:51:18.841Z,8.28
2018-07-31T10:53:47.497Z,7.78
2018-07-31T10:56:16.126Z,8.15
2018-07-31T10:58:44.875Z,8.55
2018-07-31T11:01:13.455Z,7.50
2018-07-31T11:03:42.120Z,8.00
2018-07-31T11:06:10.782Z,7.53
2018-07-31T11:08:39.437Z,7.65
2018-07-31T11:11:08.126Z,7.12
2018-07-31T11:13:36.878Z,7.53
2018-07-31T11:16:05.766Z,7.25
2018-07-31T11:18:34.422Z,8.18
2018-07-31T11:21:03.198Z,7.10
2018-07-31T11:23:31.819Z,6.95
2018-07-31T11:26:00.464Z,7.20
2018-07-31T11:28:29.080Z,7.37
2018-07-31T11:30:57.717Z,7.35
2018-07-31T11:33:26.376Z,7.00
2018-07-31T11:35:55.187Z,7.20
2018-07-31T11:38:23.894Z,6.62
2018-07-31T11:40:52.597Z,6.40
2018-07-31T11:43:21.230Z,6.25
2018-07-31T11:45:49.904Z,7.22
2018-07-31T11:48:18.609Z,6.70
2018-07-31T11:50:47.477Z,7.78
2018-07-31T11:53:16.179Z,8.00
2018-07-31T11:55:44.808Z,7.12
2018-07-31T11:58:13.529Z,7.05
2018-07-31T12:00:42.274Z,6.90
2018-07-31T12:03:10.945Z,7.12
2018-07-31T12:05:39.632Z,6.28
2018-07-31T12:08:08.292Z,5.72
2018-07-31T12:10:37.012Z,6.40
2018-07-31T12:13:05.709Z,6.00
2018-07-31T12:15:34.388Z,6.03
2018-07-31T12:18:03.274Z,6.55
2018-07-31T12:20:31.935Z,6.55
2018-07-31T12:23:00.623Z,8.13
2018-07-31T12:25:29.249Z,6.80
2018-07-31T12:28:01.662Z,6.28
2018-07-31T12:30:30.323Z,6.72
2018-07-31T12:32:59.045Z,7.42
2018-07-31T12:35:27.877Z,6.55
2018-07-31T12:37:56.537Z,9.90
2018-07-31T12:40:25.209Z,8.43
2018-07-31T12:42:53.833Z,7.78
2018-07-31T12:45:22.521Z,7.25
2018-07-31T12:47:51.116Z,7.45
2018-07-31T12:50:19.742Z,7.42
2018-07-31T12:52:48.401Z,7.50
2018-07-31T12:55:17.022Z,7.08
2018-07-31T12:57:45.658Z,7.25
2018-07-31T13:00:14.303Z,6.83
2018-07-31T13:02:42.941Z,6.47
2018-07-31T13:05:11.634Z,7.35
2018-07-31T13:07:40.281Z,7.28
2018-07-31T13:10:08.973Z,6.77
2018-07-31T13:12:37.601Z,7.58
2018-07-31T13:15:06.311Z,8.00
2018-07-31T13:17:35.126Z,8.10
2018-07-31T13:20:03.863Z,8.30
2018-07-31T13:22:32.526Z,8.00
2018-07-31T13:25:01.215Z,7.53
2018-07-31T13:27:29.899Z,7.80
2018-07-31T13:29:58.653Z,7.40
2018-07-31T13:32:27.311Z,6.73
2018-07-31T13:34:55.966Z,7.10
2018-07-31T13:37:24.639Z,6.33
2018-07-31T13:39:53.257Z,7.40
2018-07-31T13:42:22.003Z,7.67
2018-07-31T13:44:50.700Z,7.60
2018-07-31T13:47:19.434Z,7.67
2018-07-31T13:49:48.108Z,7.83
2018-07-31T13:52:16.793Z,7.30
2018-07-31T13:54:45.434Z,7.23
2018-07-31T13:57:14.120Z,6.93
2018-07-31T13:59:42.773Z,6.40
2018-07-31T14:02:11.443Z,6.20
2018-07-31T14:04:40.068Z,5.90
2018-07-31T14:07:08.739Z,6.30
2018-07-31T14:09:37.406Z,5.70
2018-07-31T14:12:06.107Z,4.57
2018-07-31T14:14:34.801Z,4.60
2018-07-31T14:17:03.438Z,3.87
2018-07-31T14:19:32.117Z,4.40
2018-07-31T14:22:00.804Z,4.67
2018-07-31T14:24:29.466Z,5.47
2018-07-31T14:26:58.152Z,4.90
2018-07-31T14:29:26.795Z,5.37
2018-07-31T14:31:55.473Z,5.30
2018-07-31T14:34:24.121Z,5.20
2018-07-31T14:36:52.781Z,5.90
2018-07-31T14:39:21.404Z,6.30
2018-07-31T14:41:50.282Z,5.00
2018-07-31T14:44:18.926Z,5.00
2018-07-31T14:46:47.670Z,5.40
2018-07-31T14:49:16.327Z,4.97
2018-07-31T14:51:44.932Z,4.70
2018-07-31T14:54:13.616Z,5.10
2018-07-31T14:56:42.290Z,5.50
2018-07-31T14:59:11.210Z,5.37
2018-07-31T15:01:39.930Z,5.40
2018-07-31T15:04:08.590Z,5.50
2018-07-31T15:06:37.237Z,5.60
2018-07-31T15:09:08.791Z,5.83
2018-07-31T15:11:37.482Z,5.80
2018-07-31T15:14:06.248Z,6.40
2018-07-31T15:16:35.380Z,6.73
2018-07-31T15:19:04.030Z,6.87
2018-07-31T15:21:32.665Z,7.17
2018-07-31T15:24:01.365Z,8.40
2018-07-31T15:26:30.077Z,7.00
2018-07-31T15:28:58.754Z,7.40
2018-07-31T15:31:27.493Z,7.60
2018-07-31T15:33:56.133Z,7.47
2018-07-31T15:36:24.778Z,7.80
2018-07-31T15:38:53.451Z,6.50
2018-07-31T15:41:22.124Z,6.90
2018-07-31T15:43:50.787Z,7.03
2018-07-31T15:46:19.436Z,6.77
2018-07-31T15:48:48.073Z,7.10
2018-07-31T15:51:16.737Z,6.03
2018-07-31T15:53:45.378Z,7.03
2018-07-31T15:56:13.994Z,6.40
2018-07-31T15:58:42.650Z,6.40
2018-07-31T16:01:11.340Z,6.80
2018-07-31T16:03:40.584Z,6.35
2018-07-31T16:06:09.268Z,6.67
2018-07-31T16:08:37.929Z,6.30
2018-07-31T16:11:06.656Z,6.57
2018-07-31T16:13:35.422Z,6.28
2018-07-31T16:16:04.130Z,6.65
2018-07-31T16:18:32.777Z,7.30
2018-07-31T16:21:01.439Z,6.53
2018-07-31T16:23:30.189Z,7.83
2018-07-31T16:25:59.342Z,6.37
2018-07-31T16:28:28.025Z,7.20
2018-07-31T16:30:56.668Z,8.58
2018-07-31T16:33:25.394Z,14.60
2018-07-31T16:35:54.426Z,10.80
2018-07-31T16:38:23.480Z,11.80
2018-07-31T16:40:52.179Z,6.20
2018-07-31T16:43:20.843Z,6.85
2018-07-31T16:45:49.465Z,7.58
2018-07-31T16:48:18.162Z,6.92
2018-07-31T16:50:46.854Z,9.73
2018-07-31T16:53:15.572Z,9.90
2018-07-31T16:55:44.262Z,12.35
2018-07-31T16:58:12.993Z,11.43
2018-07-31T17:00:41.651Z,7.00
2018-07-31T17:03:10.276Z,6.47
2018-07-31T17:05:38.910Z,10.15
2018-07-31T17:08:07.582Z,14.80
2018-07-31T17:10:36.201Z,16.30
2018-07-31T17:13:04.952Z,11.67
2018-07-31T17:15:34.237Z,10.00
2018-07-31T17:18:02.860Z,10.05
2018-07-31T17:20:31.562Z,13.53
2018-07-31T17:23:00.219Z,12.63
2018-07-31T17:25:28.910Z,13.67
2018-07-31T17:27:57.585Z,14.30
2018-07-31T17:30:26.272Z,16.47
2018-07-31T17:32:54.949Z,15.37
2018-07-31T17:35:23.631Z,13.40
2018-07-31T17:37:52.954Z,11.30
2018-07-31T17:40:21.950Z,11.80
2018-07-31T17:42:50.614Z,11.13
2018-07-31T17:45:19.217Z,10.70
2018-07-31T17:47:47.845Z,12.00
2018-07-31T17:50:16.533Z,10.90
2018-07-31T17:52:45.324Z,10.73
2018-07-31T17:55:13.911Z,12.17
2018-07-31T17:57:42.538Z,13.67
2018-07-31T18:00:11.215Z,14.27
2018-07-31T18:02:39.877Z,13.10
2018-07-31T18:05:08.536Z,10.27
2018-07-31T18:07:37.226Z,13.33
2018-07-31T18:10:05.957Z,11.80
2018-07-31T18:12:34.681Z,10.33
2018-07-31T18:15:03.318Z,10.27
2018-07-31T18:17:32.110Z,10.53
2018-07-31T18:20:00.807Z,11.07
2018-07-31T18:22:31.042Z,10.97
2018-07-31T18:24:59.691Z,9.93
2018-07-31T18:27:28.487Z,10.17
2018-07-31T18:29:57.210Z,11.03
2018-07-31T18:32:25.902Z,11.43
2018-07-31T18:34:54.613Z,10.57
2018-07-31T18:37:23.358Z,11.77
2018-07-31T18:39:52.267Z,10.67
2018-07-31T18:42:21.051Z,10.67
2018-07-31T18:44:50.996Z,10.60
2018-07-31T18:47:19.677Z,10.63
2018-07-31T18:51:17.430Z,10.47
2018-07-31T18:53:46.086Z,11.77
2018-07-31T18:56:14.725Z,12.07
2018-07-31T18:58:43.454Z,12.03
2018-07-31T19:01:12.388Z,10.87
2018-07-31T19:03:41.187Z,10.77
2018-07-31T19:06:09.914Z,13.40
2018-07-31T19:08:38.824Z,10.43
2018-07-31T19:11:08.763Z,10.17
2018-07-31T19:13:37.476Z,9.77
2018-07-31T19:16:06.285Z,10.77
2018-07-31T19:18:35.105Z,11.33
2018-07-31T19:21:03.852Z,11.57
2018-07-31T19:23:32.673Z,18.20
2018-07-31T19:26:01.712Z,20.93
2018-07-31T19:28:30.521Z,24.00
2018-07-31T19:30:59.633Z,20.37
2018-07-31T19:33:28.548Z,18.07
2018-07-31T19:35:57.294Z,19.17
2018-07-31T19:38:26.038Z,20.93
2018-07-31T19:40:56.113Z,18.17
2018-07-31T19:43:25.005Z,19.07
2018-07-31T19:45:54.340Z,18.97
2018-07-31T19:48:23.182Z,16.63
2018-07-31T19:50:51.926Z,17.60
2018-07-31T19:53:20.693Z,15.03
2018-07-31T19:55:49.429Z,13.90
2018-07-31T19:58:18.201Z,13.90
2018-07-31T20:00:47.209Z,13.13
2018-07-31T20:03:16.478Z,15.07
2018-07-31T20:05:45.210Z,15.13
2018-07-31T20:08:14.003Z,17.87
2018-07-31T20:10:42.639Z,20.03
2018-07-31T20:13:11.302Z,21.00
2018-07-31T20:15:39.944Z,20.20
2018-07-31T20:18:08.785Z,18.50
2018-07-31T20:20:37.464Z,15.87
2018-07-31T20:23:06.210Z,15.97
2018-07-31T20:25:34.861Z,13.60
2018-07-31T20:28:03.755Z,13.97
2018-07-31T20:30:32.482Z,14.13
2018-07-31T20:34:04.422Z,13.13
2018-07-31T20:36:33.848Z,13.50
2018-07-31T20:39:02.623Z,13.37
2018-07-31T20:41:33.916Z,15.20
2018-07-31T20:44:02.703Z,13.67
2018-07-31T20:46:31.507Z,15.70
2018-07-31T20:49:00.173Z,15.07
2018-07-31T20:51:28.877Z,15.73
2018-07-31T20:53:57.607Z,15.83
2018-07-31T20:56:26.425Z,15.43
2018-07-31T20:58:55.110Z,14.57
2018-07-31T21:01:23.843Z,14.83
2018-07-31T21:03:52.525Z,16.97
2018-07-31T21:06:21.354Z,17.40
2018-07-31T21:08:50.547Z,15.93
2018-07-31T21:11:19.208Z,17.43
2018-07-31T21:13:48.042Z,14.93
2018-07-31T21:16:16.829Z,16.10
2018-07-31T21:18:45.761Z,14.17
2018-07-31T21:21:14.439Z,14.27
2018-07-31T21:23:43.108Z,14.90
2018-07-31T21:26:11.811Z,15.10
2018-07-31T21:28:40.505Z,19.87
2018-07-31T21:31:09.226Z,20.63
2018-07-31T21:33:37.939Z,29.83
2018-07-31T21:36:06.823Z,20.87
2018-07-31T21:38:35.475Z,18.97
2018-07-31T21:41:04.150Z,19.40
2018-07-31T21:43:32.820Z,16.30
2018-07-31T21:46:01.543Z,15.47
2018-07-31T21:48:30.200Z,15.07
2018-07-31T21:50:58.917Z,15.13
2018-07-31T21:53:27.745Z,14.63
2018-07-31T21:55:56.445Z,15.37
2018-07-31T21:58:25.112Z,14.37
2018-07-31T22:00:59.080Z,15.27
2018-07-31T22:03:27.905Z,14.57
2018-07-31T22:05:56.694Z,15.67
2018-07-31T22:08:25.433Z,15.73
2018-07-31T22:10:54.183Z,16.47
2018-07-31T22:13:22.899Z,16.33
2018-07-31T22:15:51.575Z,16.20
2018-07-31T22:18:20.262Z,15.47
2018-07-31T22:20:49.051Z,15.77
2018-07-31T22:23:17.794Z,15.77
2018-07-31T22:25:46.451Z,14.90
2018-07-31T22:28:15.170Z,16.20
2018-07-31T22:30:43.860Z,15.07
2018-07-31T22:33:12.710Z,15.10
2018-07-31T22:35:41.399Z,15.07
2018-07-31T22:38:10.220Z,13.67
2018-07-31T22:40:38.943Z,14.73
2018-07-31T22:43:07.657Z,14.03
2018-07-31T22:45:36.319Z,14.33
2018-07-31T22:48:05.099Z,12.73
2018-07-31T22:50:33.747Z,14.40
2018-07-31T22:53:02.405Z,14.03
2018-07-31T22:55:31.259Z,12.57
2018-07-31T22:58:00.018Z,14.00
2018-07-31T23:00:28.998Z,13.97
2018-07-31T23:02:57.643Z,12.77
2018-07-31T23:05:26.311Z,13.50
2018-07-31T23:07:55.036Z,14.23
2018-07-31T23:10:23.709Z,13.60
2018-07-31T23:12:52.385Z,13.97
2018-07-31T23:15:21.058Z,14.10
2018-07-31T23:17:49.815Z,13.80
2018-07-31T23:20:18.514Z,13.77
2018-07-31T23:22:48.419Z,14.03
2018-07-31T23:25:17.096Z,13.73
2018-07-31T23:27:45.798Z,14.00
2018-07-31T23:30:14.538Z,13.80
2018-07-31T23:32:43.505Z,13.87
2018-07-31T23:35:12.377Z,13.87
2018-07-31T23:38:43.926Z,13.67
2018-07-31T23:41:12.606Z,13.10
2018-07-31T23:43:41.300Z,13.93
2018-07-31T23:46:10.072Z,14.53
2018-07-31T23:48:38.808Z,13.70
2018-07-31T23:51:07.478Z,13.83
2018-07-31T23:53:36.193Z,13.43
2018-07-31T23:56:04.947Z,14.50
2018-07-31T23:58:33.594Z,13.50
